Time;durP1;ratioP1;P1;durP2;ratioP2;P2;SDS_P1;SDS_P2;PMS_P1;PMS_P2;Temp;Humidity;BMP_temperature;BMP_pressure;BME280_temperature;BME280_humidity;BME280_pressure;Samples;Min_cycle;Max_cycle;Signal;HPM_P1;HPM_P2
2023/08/27 00:04:27;;;;;;;9.27;8.98;;;16.90;99.90;;;;;;5027058;28;20350;-85
2023/08/27 00:06:54;;;;;;;9.32;9.02;;;16.80;99.90;;;;;;5079417;22;20265;-79
2023/08/27 00:09:23;;;;;;;9.60;9.30;;;16.80;99.90;;;;;;5061288;28;20282;-79
2023/08/27 00:11:50;;;;;;;9.65;9.35;;;16.80;99.90;;;;;;5057311;28;20304;-79
2023/08/27 00:14:17;;;;;;;9.75;9.45;;;16.80;99.90;;;;;;5072174;28;20235;-79
2023/08/27 00:16:44;;;;;;;9.65;9.35;;;16.80;99.90;;;;;;5068821;28;20310;-79
2023/08/27 00:19:11;;;;;;;9.75;9.45;;;16.80;99.90;;;;;;5067655;28;20207;-79
2023/08/27 00:21:38;;;;;;;9.65;9.35;;;16.80;99.90;;;;;;5067199;28;20310;-81
2023/08/27 00:24:06;;;;;;;9.70;9.40;;;16.80;99.90;;;;;;5063946;28;20265;-79
2023/08/27 00:26:37;;;;;;;9.73;9.43;;;16.80;99.90;;;;;;5053183;28;20243;-79
2023/08/27 00:29:04;;;;;;;9.55;9.25;;;16.80;99.90;;;;;;5062779;28;20234;-80
2023/08/27 00:31:31;;;;;;;9.60;9.30;;;16.90;99.90;;;;;;5060906;28;20247;-80
2023/08/27 00:33:58;;;;;;;9.55;9.25;;;16.80;99.90;;;;;;5060010;28;20233;-80
2023/08/27 00:36:25;;;;;;;9.48;9.18;;;16.80;99.90;;;;;;5061213;28;20235;-81
2023/08/27 00:39:07;;;;;;;9.75;9.45;;;16.80;99.90;;;;;;5062571;28;20235;-82
2023/08/27 00:41:35;;;;;;;9.75;9.45;;;16.80;99.90;;;;;;5056644;28;20258;-79
2023/08/27 00:44:03;;;;;;;10.00;9.70;;;16.80;99.90;;;;;;5060740;28;20285;-81
2023/08/27 00:46:30;;;;;;;9.75;9.45;;;16.80;99.90;;;;;;5061495;28;20346;-78
2023/08/27 00:48:58;;;;;;;9.57;9.27;;;16.80;99.90;;;;;;5060254;28;20222;-78
2023/08/27 00:51:25;;;;;;;9.98;9.68;;;16.80;99.90;;;;;;5061776;28;20234;-80
2023/08/27 00:53:53;;;;;;;9.70;9.40;;;16.90;99.90;;;;;;5060138;28;20238;-81
2023/08/27 00:56:20;;;;;;;9.73;9.43;;;16.90;99.90;;;;;;5061114;28;20325;-79
2023/08/27 00:58:48;;;;;;;9.85;9.55;;;16.90;99.90;;;;;;5059343;28;20219;-82
2023/08/27 01:01:17;;;;;;;9.85;9.55;;;16.90;99.90;;;;;;5060840;28;20261;-80
2023/08/27 01:03:44;;;;;;;9.80;9.50;;;16.90;99.90;;;;;;5061220;28;20779;-80
2023/08/27 01:06:11;;;;;;;9.80;9.50;;;16.90;99.90;;;;;;5062053;28;20258;-80
2023/08/27 01:08:49;;;;;;;9.70;9.40;;;17.00;99.90;;;;;;5063736;28;21024;-80
2023/08/27 01:11:27;;;;;;;9.57;9.27;;;17.00;99.90;;;;;;5059530;28;20230;-80
2023/08/27 01:14:01;;;;;;;9.88;9.57;;;17.00;99.90;;;;;;5059498;28;20233;-80
2023/08/27 01:16:30;;;;;;;9.77;9.48;;;17.00;99.90;;;;;;5060315;28;20234;-80
2023/08/27 01:19:01;;;;;;;9.60;9.30;;;17.00;99.90;;;;;;5060388;28;20326;-80
2023/08/27 01:21:29;;;;;;;9.85;9.55;;;17.00;99.90;;;;;;5061450;28;20219;-80
2023/08/27 01:23:56;;;;;;;9.98;9.68;;;17.00;99.90;;;;;;5061243;28;20317;-80
2023/08/27 01:26:32;;;;;;;9.82;9.52;;;17.00;99.90;;;;;;5060714;28;20234;-80
2023/08/27 01:29:06;;;;;;;9.82;9.52;;;17.00;99.90;;;;;;5061281;28;20310;-81
2023/08/27 01:31:40;;;;;;;9.80;9.50;;;17.00;99.90;;;;;;5061400;28;20230;-81
2023/08/27 01:34:10;;;;;;;9.80;9.50;;;16.90;99.90;;;;;;5060968;28;20226;-82
2023/08/27 01:36:39;;;;;;;9.90;9.60;;;16.90;99.90;;;;;;5062839;28;20231;-80
2023/08/27 01:39:07;;;;;;;9.70;9.40;;;16.90;99.90;;;;;;5061076;28;20223;-80
2023/08/27 01:41:34;;;;;;;9.80;9.50;;;16.90;99.90;;;;;;5060000;28;20243;-80
2023/08/27 01:44:01;;;;;;;9.80;9.50;;;16.90;99.90;;;;;;5060713;28;20231;-81
2023/08/27 01:46:28;;;;;;;9.95;9.65;;;16.90;99.90;;;;;;5060594;28;20238;-81
2023/08/27 01:48:55;;;;;;;9.75;9.45;;;16.90;99.90;;;;;;5060807;28;20262;-81
2023/08/27 01:51:22;;;;;;;9.85;9.55;;;16.90;99.90;;;;;;5060960;28;20298;-80
2023/08/27 01:53:50;;;;;;;9.60;9.30;;;16.90;99.90;;;;;;5060703;28;20334;-81
2023/08/27 01:56:18;;;;;;;9.90;9.60;;;16.90;99.90;;;;;;5060451;28;20230;-81
2023/08/27 01:58:45;;;;;;;9.80;9.50;;;16.90;99.90;;;;;;5060971;28;20223;-80
2023/08/27 02:01:12;;;;;;;10.00;9.70;;;16.80;99.90;;;;;;5060863;28;20245;-81
2023/08/27 02:03:39;;;;;;;9.93;9.63;;;16.80;99.90;;;;;;5062021;28;20226;-81
2023/08/27 02:06:06;;;;;;;9.80;9.50;;;16.90;99.90;;;;;;5058164;28;20238;-80
2023/08/27 02:08:33;;;;;;;9.85;9.55;;;16.80;99.90;;;;;;5059839;28;20233;-81
2023/08/27 02:11:02;;;;;;;9.88;9.57;;;16.80;99.90;;;;;;5060641;28;20350;-80
2023/08/27 02:13:29;;;;;;;9.85;9.55;;;16.80;99.90;;;;;;5060527;28;20226;-81
2023/08/27 02:15:56;;;;;;;9.80;9.50;;;16.80;99.90;;;;;;5060033;28;20231;-81
2023/08/27 02:18:23;;;;;;;9.60;9.30;;;16.80;99.90;;;;;;5061307;28;20313;-81
2023/08/27 02:20:50;;;;;;;9.60;9.30;;;16.80;99.90;;;;;;5058081;28;20229;-79
2023/08/27 02:23:17;;;;;;;9.70;9.40;;;16.80;99.90;;;;;;5058798;28;20727;-79
2023/08/27 02:25:44;;;;;;;9.63;9.32;;;16.80;99.90;;;;;;5062029;28;20294;-79
2023/08/27 02:28:12;;;;;;;9.60;9.30;;;16.80;99.90;;;;;;5063416;28;20330;-79
2023/08/27 02:30:39;;;;;;;9.73;9.43;;;16.80;99.90;;;;;;5063471;28;20242;-78
2023/08/27 02:33:06;;;;;;;9.52;9.23;;;16.80;99.90;;;;;;5062874;28;20235;-79
2023/08/27 02:35:33;;;;;;;9.68;9.38;;;16.90;99.90;;;;;;5062044;28;20242;-79
2023/08/27 02:38:00;;;;;;;9.70;9.40;;;16.90;99.90;;;;;;5061825;28;20282;-79
2023/08/27 02:40:27;;;;;;;9.50;9.20;;;16.90;99.90;;;;;;5061500;28;20249;-79
2023/08/27 02:42:54;;;;;;;9.43;9.13;;;16.90;99.90;;;;;;5061315;28;20309;-79
2023/08/27 02:45:23;;;;;;;9.65;9.35;;;16.90;99.90;;;;;;5062774;28;20235;-79
2023/08/27 02:47:50;;;;;;;9.32;9.02;;;16.90;99.90;;;;;;5061934;28;20221;-79
2023/08/27 02:50:17;;;;;;;9.50;9.20;;;16.80;99.90;;;;;;5061797;28;20227;-79
2023/08/27 02:52:44;;;;;;;9.80;9.50;;;16.80;99.90;;;;;;5061506;28;20294;-79
2023/08/27 02:55:11;;;;;;;9.60;9.30;;;16.80;99.90;;;;;;5061329;28;20237;-79
2023/08/27 02:57:38;;;;;;;9.65;9.35;;;16.70;99.90;;;;;;5062092;28;20233;-79
2023/08/27 03:00:07;;;;;;;9.70;9.40;;;16.70;99.90;;;;;;5073689;28;20245;-80
2023/08/27 03:02:37;;;;;;;9.63;9.32;;;16.60;99.90;;;;;;5068772;28;20265;-80
2023/08/27 03:05:09;;;;;;;9.70;9.40;;;16.70;99.90;;;;;;5063578;28;20337;-79
2023/08/27 03:07:36;;;;;;;9.40;9.10;;;16.70;99.90;;;;;;5063606;28;20298;-79
2023/08/27 03:10:03;;;;;;;9.40;9.10;;;16.60;99.90;;;;;;5062433;28;20231;-79
2023/08/27 03:12:30;;;;;;;9.70;9.40;;;16.70;99.90;;;;;;5061589;28;20634;-79
2023/08/27 03:14:57;;;;;;;9.50;9.20;;;16.70;99.90;;;;;;5061740;28;20241;-79
2023/08/27 03:17:24;;;;;;;9.65;9.35;;;16.70;99.90;;;;;;5061921;28;20221;-77
2023/08/27 03:19:54;;;;;;;9.60;9.30;;;16.70;99.90;;;;;;5061258;28;20258;-79
2023/08/27 03:22:23;;;;;;;9.50;9.20;;;16.80;99.90;;;;;;5063910;28;20242;-80
2023/08/27 03:24:50;;;;;;;9.70;9.40;;;16.80;99.90;;;;;;5063166;28;20266;-80
2023/08/27 03:27:17;;;;;;;9.52;9.23;;;16.80;99.90;;;;;;5065578;28;20223;-80
2023/08/27 03:29:44;;;;;;;9.60;9.30;;;16.80;99.90;;;;;;5071323;28;20305;-80
2023/08/27 03:32:13;;;;;;;9.65;9.35;;;16.80;99.90;;;;;;5070707;28;20238;-80
2023/08/27 03:34:40;;;;;;;9.73;9.43;;;16.80;99.90;;;;;;5073823;28;20225;-79
2023/08/27 03:37:09;;;;;;;9.57;9.27;;;16.80;99.90;;;;;;5077476;28;20231;-80
2023/08/27 03:39:36;;;;;;;9.68;9.38;;;16.80;99.90;;;;;;5078875;28;20238;-79
2023/08/27 03:42:03;;;;;;;9.30;9.00;;;16.90;99.90;;;;;;5077633;28;20254;-80
2023/08/27 03:44:30;;;;;;;9.43;9.13;;;16.90;99.90;;;;;;5077686;28;20237;-79
2023/08/27 03:46:57;;;;;;;9.63;9.32;;;16.90;99.90;;;;;;5078306;28;20242;-79
2023/08/27 03:49:24;;;;;;;9.50;9.20;;;16.90;99.90;;;;;;5078898;28;20235;-80
2023/08/27 03:51:52;;;;;;;9.60;9.30;;;16.90;99.90;;;;;;5078417;28;20302;-79
2023/08/27 03:54:20;;;;;;;9.70;9.40;;;16.90;99.90;;;;;;5078753;28;20286;-80
2023/08/27 03:56:48;;;;;;;9.80;9.50;;;16.90;99.90;;;;;;5079844;28;20218;-80
2023/08/27 03:59:15;;;;;;;9.68;9.38;;;16.90;99.90;;;;;;5077859;28;20294;-79
2023/08/27 04:01:42;;;;;;;9.80;9.50;;;17.00;99.90;;;;;;5077552;28;20242;-80
2023/08/27 04:04:09;;;;;;;9.50;9.20;;;17.00;99.90;;;;;;5076821;28;20230;-79
2023/08/27 04:06:36;;;;;;;9.63;9.32;;;16.90;99.90;;;;;;5073830;28;20242;-79
2023/08/27 04:09:05;;;;;;;9.70;9.40;;;16.90;99.90;;;;;;5062886;28;20239;-80
2023/08/27 04:11:33;;;;;;;9.65;9.35;;;16.90;99.90;;;;;;5061997;28;20262;-81
2023/08/27 04:14:00;;;;;;;9.60;9.30;;;16.80;99.90;;;;;;5062342;28;20234;-81
2023/08/27 04:16:27;;;;;;;9.60;9.30;;;16.80;99.90;;;;;;5061344;28;20261;-79
2023/08/27 04:18:54;;;;;;;9.80;9.50;;;16.80;99.90;;;;;;5061349;28;20298;-79
2023/08/27 04:21:21;;;;;;;9.70;9.40;;;16.80;99.90;;;;;;5060157;28;20238;-80
2023/08/27 04:23:48;;;;;;;9.75;9.45;;;16.80;99.90;;;;;;5060602;28;20231;-79
2023/08/27 04:26:15;;;;;;;9.50;9.20;;;16.80;99.90;;;;;;5060619;28;20295;-79
2023/08/27 04:28:44;;;;;;;9.60;9.30;;;16.80;99.90;;;;;;5060162;28;20306;-79
2023/08/27 04:31:11;;;;;;;9.90;9.60;;;16.80;99.90;;;;;;5060143;28;20249;-78
2023/08/27 04:33:38;;;;;;;9.80;9.50;;;16.80;99.90;;;;;;5060104;28;20287;-80
2023/08/27 04:36:05;;;;;;;9.70;9.40;;;16.90;99.90;;;;;;5062065;28;20261;-80
2023/08/27 04:38:33;;;;;;;9.77;9.48;;;16.90;99.90;;;;;;5063107;28;20330;-80
2023/08/27 04:41:00;;;;;;;9.70;9.40;;;16.90;99.90;;;;;;5065299;28;20266;-80
2023/08/27 04:43:27;;;;;;;9.90;9.60;;;16.90;99.90;;;;;;5062227;28;20252;-80
2023/08/27 04:45:55;;;;;;;9.80;9.50;;;16.90;99.90;;;;;;5062960;28;20231;-80
2023/08/27 04:48:22;;;;;;;9.82;9.52;;;16.90;99.90;;;;;;5062241;28;20233;-80
2023/08/27 04:50:49;;;;;;;9.82;9.52;;;16.90;99.90;;;;;;5066855;28;20241;-80
2023/08/27 04:53:16;;;;;;;9.90;9.60;;;16.90;99.90;;;;;;5060813;28;20265;-80
2023/08/27 04:55:43;;;;;;;9.75;9.45;;;17.00;99.90;;;;;;5060692;28;20250;-80
2023/08/27 04:58:11;;;;;;;9.60;9.30;;;16.90;99.90;;;;;;5061682;28;20708;-80
2023/08/27 05:00:38;;;;;;;9.68;9.38;;;17.00;99.90;;;;;;5062122;28;20249;-80
2023/08/27 05:03:07;;;;;;;9.50;9.20;;;17.00;99.90;;;;;;5062805;28;20288;-79
2023/08/27 05:05:34;;;;;;;9.70;9.40;;;17.00;99.90;;;;;;5063245;28;20294;-80
2023/08/27 05:08:02;;;;;;;9.65;9.35;;;17.00;99.90;;;;;;5062591;28;20298;-80
2023/08/27 05:10:29;;;;;;;9.60;9.30;;;17.00;99.90;;;;;;5061493;28;20242;-81
2023/08/27 05:12:56;;;;;;;9.57;9.27;;;17.00;99.90;;;;;;5062418;28;20227;-80
2023/08/27 05:15:23;;;;;;;9.80;9.50;;;17.00;99.90;;;;;;5063245;28;20266;-81
2023/08/27 05:17:50;;;;;;;9.50;9.20;;;17.00;99.90;;;;;;5065383;28;20226;-81
2023/08/27 05:20:19;;;;;;;9.50;9.20;;;17.00;99.90;;;;;;5065776;28;20284;-81
2023/08/27 05:22:46;;;;;;;9.70;9.40;;;17.00;99.90;;;;;;5063616;28;20249;-80
2023/08/27 05:25:13;;;;;;;9.63;9.32;;;17.10;99.90;;;;;;5062966;28;20234;-80
2023/08/27 05:27:44;;;;;;;9.52;9.23;;;17.10;99.90;;;;;;5061668;28;20317;-80
2023/08/27 05:30:14;;;;;;;9.65;9.35;;;17.10;99.90;;;;;;5061801;28;20234;-81
2023/08/27 05:32:41;;;;;;;9.60;9.30;;;17.10;99.90;;;;;;5061565;28;20261;-81
2023/08/27 05:35:09;;;;;;;9.60;9.30;;;17.10;99.90;;;;;;5062029;28;20321;-80
2023/08/27 05:37:38;;;;;;;9.77;9.48;;;17.20;99.90;;;;;;5062809;28;20241;-81
2023/08/27 05:40:08;;;;;;;9.57;9.27;;;17.20;99.90;;;;;;5062914;28;20231;-81
2023/08/27 05:42:35;;;;;;;9.63;9.32;;;17.20;99.90;;;;;;5061545;28;20255;-80
2023/08/27 05:45:04;;;;;;;9.70;9.40;;;17.20;99.90;;;;;;5061970;28;20321;-81
2023/08/27 05:47:31;;;;;;;9.30;9.00;;;17.10;99.90;;;;;;5065962;28;20233;-81
2023/08/27 05:49:58;;;;;;;9.57;9.27;;;17.10;99.90;;;;;;5065207;28;20243;-79
2023/08/27 05:52:26;;;;;;;9.50;9.20;;;17.10;99.90;;;;;;5064631;28;20233;-80
2023/08/27 05:54:54;;;;;;;9.38;9.07;;;17.10;99.90;;;;;;5062563;28;20231;-80
2023/08/27 05:57:21;;;;;;;9.43;9.13;;;17.10;99.90;;;;;;5061189;28;20242;-80
2023/08/27 05:59:48;;;;;;;9.38;9.07;;;17.10;99.90;;;;;;5062384;28;20235;-79
2023/08/27 06:02:15;;;;;;;9.38;9.07;;;17.10;99.90;;;;;;5062662;28;20330;-80
2023/08/27 06:04:43;;;;;;;9.50;9.20;;;17.10;99.90;;;;;;5062638;28;20227;-79
2023/08/27 06:07:11;;;;;;;9.30;9.00;;;17.10;99.90;;;;;;5073568;22;20245;-83
2023/08/27 06:09:38;;;;;;;9.07;8.77;;;17.20;99.90;;;;;;5042161;28;20358;-85
2023/08/27 06:12:09;;;;;;;9.40;9.10;;;17.20;99.90;;;;;;5042938;28;20220;-85
2023/08/27 06:14:38;;;;;;;9.63;9.32;;;17.30;99.90;;;;;;5045229;28;20267;-86
2023/08/27 06:17:05;;;;;;;9.80;9.50;;;17.30;99.90;;;;;;5024835;28;20241;-85
2023/08/27 06:19:36;;;;;;;9.40;9.10;;;17.30;99.90;;;;;;5020403;28;20232;-86
2023/08/27 06:22:04;;;;;;;9.50;9.20;;;17.30;99.90;;;;;;5026189;28;20272;-85
2023/08/27 06:24:44;;;;;;;9.38;9.07;;;17.20;99.90;;;;;;5022202;28;20296;-86
2023/08/27 06:30:08;;;;;;;9.27;8.98;;;17.20;99.90;;;;;;5015381;28;20267;-86
2023/08/27 06:32:37;;;;;;;9.20;8.90;;;17.20;99.90;;;;;;5014380;28;20231;-86
2023/08/27 06:35:06;;;;;;;9.30;9.00;;;17.20;99.90;;;;;;5021454;28;20228;-86
2023/08/27 06:37:45;;;;;;;9.10;8.80;;;17.20;99.90;;;;;;5021017;28;20295;-85
2023/08/27 06:40:14;;;;;;;9.02;8.73;;;17.10;99.90;;;;;;5007038;28;20239;-86
2023/08/27 06:48:45;;;;;;;9.00;8.70;;;17.20;99.90;;;;;;5167879;22;20239;-85
2023/08/27 06:51:13;;;;;;;9.15;8.85;;;17.20;99.90;;;;;;5178767;27;20220;-86
2023/08/27 06:53:53;;;;;;;9.07;8.77;;;17.20;99.90;;;;;;5178978;27;20211;-85
2023/08/27 06:56:21;;;;;;;9.13;8.82;;;17.10;99.90;;;;;;5167621;27;20293;-85
2023/08/27 06:58:50;;;;;;;8.75;8.45;;;17.10;99.90;;;;;;5157061;27;20234;-86
2023/08/27 07:04:07;;;;;;;8.98;8.68;;;17.10;99.90;;;;;;5158590;27;20231;-85
2023/08/27 07:06:36;;;;;;;9.10;8.80;;;17.10;99.90;;;;;;5138394;27;20330;-84
2023/08/27 07:09:05;;;;;;;9.00;8.70;;;17.10;99.90;;;;;;5151512;27;20227;-84
2023/08/27 07:11:35;;;;;;;9.02;8.73;;;17.10;99.90;;;;;;5160299;27;20239;-83
2023/08/27 07:14:13;;;;;;;9.05;8.75;;;17.10;99.90;;;;;;5154100;27;20255;-84
2023/08/27 07:19:39;;;;;;;9.10;8.80;;;17.10;99.90;;;;;;5146361;27;20229;-83
2023/08/27 07:22:08;;;;;;;8.88;8.57;;;17.10;99.90;;;;;;5158155;27;20288;-85
2023/08/27 07:24:47;;;;;;;8.88;8.57;;;17.10;99.90;;;;;;5156757;27;20216;-85
2023/08/27 07:27:26;;;;;;;8.60;8.40;;;17.20;99.90;;;;;;5150320;27;20262;-85
2023/08/27 07:30:06;;;;;;;8.93;8.63;;;17.30;99.90;;;;;;5159076;27;20235;-85
2023/08/27 07:32:36;;;;;;;8.98;8.68;;;17.30;99.90;;;;;;5139509;27;20228;-84
2023/08/27 07:35:04;;;;;;;9.10;8.80;;;17.40;99.90;;;;;;5148585;27;20224;-84
2023/08/27 07:37:33;;;;;;;9.30;9.00;;;17.40;99.90;;;;;;5156843;27;20346;-85
2023/08/27 07:40:11;;;;;;;9.10;8.80;;;17.40;99.90;;;;;;5157311;27;20235;-84
2023/08/27 07:42:40;;;;;;;8.82;8.55;;;17.40;99.90;;;;;;5148946;27;20344;-85
2023/08/27 07:45:10;;;;;;;8.93;8.63;;;17.50;99.90;;;;;;5148981;27;20230;-85
2023/08/27 07:47:41;;;;;;;8.70;8.50;;;17.60;99.90;;;;;;5139468;27;20290;-83
2023/08/27 07:50:09;;;;;;;8.60;8.40;;;17.70;99.90;;;;;;5157514;27;20227;-85
2023/08/27 07:52:38;;;;;;;8.70;8.50;;;17.70;99.90;;;;;;5158619;27;20318;-84
2023/08/27 07:55:09;;;;;;;8.65;8.45;;;17.70;99.90;;;;;;5155140;27;20268;-84
2023/08/27 07:57:37;;;;;;;8.55;8.35;;;17.80;99.90;;;;;;5155016;27;20238;-80
2023/08/27 08:00:07;;;;;;;8.30;8.10;;;17.90;99.90;;;;;;5149227;27;20324;-80
2023/08/27 08:02:36;;;;;;;8.95;8.65;;;18.00;99.90;;;;;;5142341;27;20229;-83
2023/08/27 08:10:31;;;;;;;8.98;8.68;;;18.10;99.90;;;;;;5144170;27;20264;-86
2023/08/27 08:13:01;;;;;;;8.90;8.60;;;18.20;99.90;;;;;;5130192;27;20234;-85
2023/08/27 08:15:30;;;;;;;8.60;8.40;;;18.30;99.90;;;;;;5121572;28;20217;-85
2023/08/27 08:17:59;;;;;;;8.75;8.55;;;18.50;99.90;;;;;;5121937;27;20263;-86
2023/08/27 08:20:47;;;;;;;9.23;8.93;;;18.60;99.90;;;;;;5123810;27;20256;-87
2023/08/27 08:23:17;;;;;;;8.77;8.57;;;18.60;99.90;;;;;;5141732;27;20220;-85
2023/08/27 08:25:49;;;;;;;8.88;8.60;;;18.70;99.90;;;;;;5136786;27;20273;-84
2023/08/27 08:28:16;;;;;;;9.23;8.93;;;18.80;99.90;;;;;;5142598;27;20282;-83
2023/08/27 08:33:31;;;;;;;9.70;9.40;;;19.00;99.90;;;;;;5142763;27;20291;-86
2023/08/27 08:38:47;;;;;;;9.75;9.45;;;19.20;99.90;;;;;;5142225;27;20235;-84
2023/08/27 08:41:25;;;;;;;9.77;9.48;;;19.30;99.90;;;;;;5142515;27;20254;-84
2023/08/27 08:46:43;;;;;;;10.10;9.80;;;19.50;99.90;;;;;;5142788;27;20255;-83
2023/08/27 08:52:01;;;;;;;10.23;9.93;;;19.60;99.90;;;;;;5143813;27;20228;-82
2023/08/27 08:54:29;;;;;;;10.60;10.30;;;19.70;99.90;;;;;;5144151;27;20259;-83
2023/08/27 08:59:53;;;;;;;10.30;10.00;;;19.90;99.90;;;;;;5142514;27;20230;-82
2023/08/27 09:02:23;;;;;;;10.48;10.18;;;19.90;99.90;;;;;;5142710;27;20232;-83
2023/08/27 09:04:54;;;;;;;10.55;10.25;;;19.90;99.90;;;;;;5143254;27;20240;-81
2023/08/27 09:08:03;;;;;;;10.55;10.25;;;19.90;99.90;;;;;;5142949;27;20232;-81
2023/08/27 09:13:21;;;;;;;10.05;9.75;;;19.70;99.90;;;;;;5153102;27;20216;-82
2023/08/27 09:16:10;;;;;;;10.40;10.10;;;19.70;99.90;;;;;;5143993;27;20247;-83
2023/08/27 09:18:38;;;;;;;10.52;10.23;;;19.70;99.90;;;;;;5143580;27;20230;-82
2023/08/27 09:21:07;;;;;;;10.25;9.95;;;19.50;99.90;;;;;;5156040;27;20312;-82
2023/08/27 09:23:39;;;;;;;10.35;10.05;;;19.40;99.90;;;;;;5159346;27;20216;-82
2023/08/27 09:26:20;;;;;;;10.68;10.38;;;19.20;99.90;;;;;;5159248;27;20220;-82
2023/08/27 09:37:08;;;;;;;9.88;9.57;;;19.10;99.90;;;;;;5130179;27;20224;-85
2023/08/27 09:42:26;;;;;;;9.90;9.60;;;19.20;99.90;;;;;;5141847;27;20219;-85
2023/08/27 09:44:53;;;;;;;9.98;9.68;;;19.20;99.90;;;;;;5141603;27;20248;-84
2023/08/27 09:47:32;;;;;;;9.88;9.57;;;19.30;99.90;;;;;;5140872;27;20303;-85
2023/08/27 09:50:04;;;;;;;9.88;9.57;;;19.30;99.90;;;;;;5142034;27;20216;-84
2023/08/27 09:52:31;;;;;;;10.00;9.70;;;19.30;99.90;;;;;;5141102;27;20293;-84
2023/08/27 09:55:03;;;;;;;10.05;9.75;;;19.30;99.90;;;;;;5156339;27;20218;-84
2023/08/27 09:57:43;;;;;;;9.77;9.48;;;19.20;99.90;;;;;;5157541;27;20251;-85
2023/08/27 10:02:56;;;;;;;9.80;9.50;;;19.20;99.90;;;;;;5140687;27;20220;-84
2023/08/27 10:05:28;;;;;;;9.77;9.48;;;19.20;99.90;;;;;;5141372;27;20232;-85
2023/08/27 10:08:12;;;;;;;9.85;9.55;;;19.30;99.90;;;;;;5141550;27;20231;-84
2023/08/27 10:10:43;;;;;;;10.10;9.80;;;19.40;99.90;;;;;;5141685;27;20216;-84
2023/08/27 10:15:57;;;;;;;9.85;9.55;;;19.50;99.90;;;;;;5139668;27;20247;-83
2023/08/27 10:18:27;;;;;;;10.25;9.95;;;19.60;99.90;;;;;;5140390;27;20250;-85
2023/08/27 10:23:44;;;;;;;10.30;10.00;;;19.70;99.90;;;;;;5139932;27;20227;-86
2023/08/27 10:26:30;;;;;;;10.40;10.10;;;19.80;99.90;;;;;;5140055;27;20232;-86
2023/08/27 10:31:50;;;;;;;10.35;10.05;;;20.00;99.90;;;;;;5140212;27;20267;-85
2023/08/27 10:40:00;;;;;;;10.48;10.18;;;20.10;99.90;;;;;;5141260;27;20227;-84
2023/08/27 10:42:39;;;;;;;10.30;10.00;;;20.20;99.90;;;;;;5140571;27;20243;-84
2023/08/27 10:45:16;;;;;;;10.80;10.50;;;20.30;99.90;;;;;;5141780;27;20230;-85
2023/08/27 10:48:03;;;;;;;10.75;10.45;;;20.40;99.90;;;;;;5140406;27;20266;-84
2023/08/27 10:53:28;;;;;;;10.73;10.43;;;20.70;99.90;;;;;;5141102;27;20223;-84
2023/08/27 10:55:56;;;;;;;11.20;10.80;;;20.80;99.90;;;;;;5142199;27;20272;-85
2023/08/27 11:04:03;;;;;;;10.80;10.50;;;20.80;99.90;;;;;;5143546;27;20227;-84
2023/08/27 11:09:25;;;;;;;10.30;10.00;;;20.80;99.90;;;;;;5158923;27;20261;-84
2023/08/27 11:11:59;;;;;;;10.48;10.18;;;20.90;99.90;;;;;;5150540;27;20223;-86
2023/08/27 11:17:41;;;;;;;10.50;10.20;;;20.90;99.90;;;;;;5140354;27;20220;-86
2023/08/27 11:20:25;;;;;;;10.80;10.50;;;20.90;99.90;;;;;;5141752;27;20228;-86
2023/08/27 11:22:57;;;;;;;10.85;10.55;;;20.80;99.90;;;;;;5141585;27;20212;-86
2023/08/27 11:25:35;;;;;;;10.88;10.57;;;20.70;99.90;;;;;;5141198;27;20234;-87
2023/08/27 11:28:04;;;;;;;10.70;10.40;;;20.60;99.90;;;;;;5141167;27;20720;-85
2023/08/27 11:33:22;;;;;;;10.50;10.20;;;20.30;99.90;;;;;;5143648;27;20253;-86
2023/08/27 11:35:52;;;;;;;10.40;10.10;;;20.20;99.90;;;;;;5144929;27;20228;-85
2023/08/27 11:38:37;;;;;;;10.35;10.05;;;20.20;99.90;;;;;;5145381;27;20233;-86
2023/08/27 11:41:06;;;;;;;10.30;10.00;;;20.20;99.90;;;;;;5145339;27;20308;-86
2023/08/27 11:43:36;;;;;;;10.30;10.00;;;20.20;99.90;;;;;;5144537;27;20232;-85
2023/08/27 11:46:24;;;;;;;10.32;10.02;;;20.20;99.90;;;;;;5145663;27;20511;-86
2023/08/27 11:48:54;;;;;;;10.32;10.02;;;20.30;99.90;;;;;;5146359;27;20228;-85
2023/08/27 11:51:22;;;;;;;10.30;10.00;;;20.30;99.90;;;;;;5149636;27;20242;-83
2023/08/27 11:53:52;;;;;;;10.32;10.02;;;20.40;99.90;;;;;;5163087;27;20217;-84
2023/08/27 11:56:20;;;;;;;10.40;10.10;;;20.40;99.90;;;;;;5163688;27;20312;-83
2023/08/27 11:58:51;;;;;;;10.35;10.05;;;20.50;99.90;;;;;;5150164;27;20244;-84
2023/08/27 12:04:11;;;;;;;10.30;10.00;;;20.60;99.90;;;;;;5144585;27;20223;-85
2023/08/27 12:06:38;;;;;;;10.35;10.05;;;20.60;99.90;;;;;;5146948;27;20236;-86
2023/08/27 12:09:05;;;;;;;10.30;10.00;;;20.60;99.90;;;;;;5200940;22;20322;-77
2023/08/27 12:11:34;;;;;;;10.35;10.05;;;20.60;99.90;;;;;;5156180;27;20227;-77
2023/08/27 12:14:02;;;;;;;10.15;9.85;;;20.60;99.90;;;;;;5166482;27;20234;-77
2023/08/27 12:16:32;;;;;;;10.07;9.77;;;20.60;99.90;;;;;;5165641;27;20231;-77
2023/08/27 12:19:03;;;;;;;10.13;9.82;;;20.50;99.90;;;;;;5164927;27;20235;-77
2023/08/27 12:21:34;;;;;;;10.00;9.70;;;20.50;99.90;;;;;;5165203;27;20314;-77
2023/08/27 12:24:01;;;;;;;10.10;9.80;;;20.60;99.90;;;;;;5164278;27;20219;-77
2023/08/27 12:26:30;;;;;;;10.30;10.00;;;20.70;99.90;;;;;;5165143;27;20216;-76
2023/08/27 12:28:57;;;;;;;10.27;9.98;;;20.70;99.90;;;;;;5164168;27;20241;-77
2023/08/27 12:31:25;;;;;;;10.23;9.93;;;20.80;99.90;;;;;;5167473;27;20232;-77
2023/08/27 12:33:59;;;;;;;10.27;9.98;;;20.80;99.90;;;;;;5164211;27;20235;-77
2023/08/27 12:36:26;;;;;;;10.15;9.85;;;20.80;99.90;;;;;;5160901;27;20296;-78
2023/08/27 12:38:53;;;;;;;10.23;9.93;;;20.80;99.90;;;;;;5147630;27;20242;-76
2023/08/27 12:41:22;;;;;;;10.15;9.85;;;20.70;99.90;;;;;;5164219;27;20625;-77
2023/08/27 12:43:53;;;;;;;10.18;9.88;;;20.70;99.90;;;;;;5164626;27;20235;-76
2023/08/27 12:46:20;;;;;;;10.20;9.90;;;20.80;99.90;;;;;;5162746;27;20284;-76
2023/08/27 12:48:48;;;;;;;10.18;9.88;;;20.70;99.90;;;;;;5163121;27;20239;-77
2023/08/27 12:51:17;;;;;;;10.10;9.80;;;20.70;99.90;;;;;;5163668;27;20262;-77
2023/08/27 12:53:44;;;;;;;10.30;10.00;;;20.50;99.90;;;;;;5163718;27;20246;-77
2023/08/27 12:56:11;;;;;;;10.38;10.07;;;20.40;99.90;;;;;;5162967;27;20227;-77
2023/08/27 12:58:38;;;;;;;10.15;9.85;;;20.20;99.90;;;;;;5158180;27;20232;-77
2023/08/27 13:01:05;;;;;;;10.60;10.30;;;20.00;99.90;;;;;;5142055;27;20257;-76
2023/08/27 13:03:32;;;;;;;10.25;9.95;;;19.80;99.90;;;;;;5149919;27;20238;-77
2023/08/27 13:05:59;;;;;;;10.77;10.48;;;19.60;99.90;;;;;;5149574;27;20224;-77
2023/08/27 13:08:27;;;;;;;10.18;9.88;;;19.50;99.90;;;;;;5139778;27;20240;-76
2023/08/27 13:10:55;;;;;;;10.07;9.77;;;19.30;99.90;;;;;;5139298;27;20314;-75
2023/08/27 13:13:22;;;;;;;10.40;10.10;;;19.30;99.90;;;;;;5132786;27;20323;-75
2023/08/27 13:15:49;;;;;;;10.25;9.95;;;19.10;99.90;;;;;;5148401;27;21021;-77
2023/08/27 13:18:19;;;;;;;10.10;9.80;;;18.90;99.90;;;;;;5138729;27;20243;-75
2023/08/27 13:20:47;;;;;;;10.15;9.85;;;18.70;99.90;;;;;;5126491;27;20228;-75
2023/08/27 13:23:15;;;;;;;9.80;9.50;;;18.60;99.90;;;;;;5133474;27;20330;-76
2023/08/27 13:25:44;;;;;;;9.60;9.30;;;18.50;99.90;;;;;;5146363;27;20221;-76
2023/08/27 13:28:11;;;;;;;9.80;9.50;;;18.30;99.90;;;;;;5131006;27;20232;-76
2023/08/27 13:30:38;;;;;;;9.60;9.30;;;18.20;99.90;;;;;;5149141;27;20266;-76
2023/08/27 13:33:05;;;;;;;9.35;9.05;;;18.10;99.90;;;;;;5126372;27;20258;-75
2023/08/27 13:35:33;;;;;;;9.30;9.00;;;17.90;99.90;;;;;;5134695;27;20228;-76
2023/08/27 13:38:00;;;;;;;9.13;8.82;;;17.70;99.90;;;;;;5149439;27;20231;-75
2023/08/27 13:40:28;;;;;;;9.10;8.80;;;17.50;99.90;;;;;;5149487;27;20227;-76
2023/08/27 13:42:57;;;;;;;8.90;8.60;;;17.40;99.90;;;;;;5136825;27;20312;-75
2023/08/27 13:45:24;;;;;;;8.90;8.60;;;17.20;99.90;;;;;;5136511;27;20309;-76
2023/08/27 13:47:51;;;;;;;9.05;8.75;;;17.00;99.90;;;;;;5140187;27;20278;-75
2023/08/27 13:50:18;;;;;;;9.10;8.80;;;16.80;99.90;;;;;;5143094;27;20232;-76
2023/08/27 13:52:45;;;;;;;9.10;8.80;;;16.60;99.90;;;;;;5137069;27;20279;-76
2023/08/27 13:55:13;;;;;;;9.00;8.70;;;16.40;99.90;;;;;;5140720;27;20275;-76
2023/08/27 13:57:41;;;;;;;9.10;8.80;;;16.30;99.90;;;;;;5152189;27;20298;-76
2023/08/27 14:00:12;;;;;;;9.02;8.73;;;16.20;99.90;;;;;;5161431;27;20235;-77
2023/08/27 14:02:39;;;;;;;8.70;8.40;;;16.20;99.90;;;;;;5150837;27;20232;-78
2023/08/27 14:05:07;;;;;;;8.65;8.35;;;16.10;99.90;;;;;;5151506;27;20224;-76
2023/08/27 14:07:34;;;;;;;8.88;8.57;;;16.10;99.90;;;;;;5156913;27;20240;-76
2023/08/27 14:10:01;;;;;;;8.45;8.25;;;16.10;99.90;;;;;;5158927;27;20795;-76
2023/08/27 14:12:28;;;;;;;8.25;8.05;;;16.10;99.90;;;;;;5163833;27;20224;-77
2023/08/27 14:14:55;;;;;;;8.20;8.00;;;16.10;99.90;;;;;;5170935;27;20216;-77
2023/08/27 14:17:24;;;;;;;8.77;8.48;;;16.10;99.90;;;;;;5169447;27;20299;-78
2023/08/27 14:19:51;;;;;;;8.40;8.20;;;16.10;99.90;;;;;;5164244;27;20237;-78
2023/08/27 14:22:18;;;;;;;8.48;8.27;;;16.20;99.90;;;;;;5166199;27;20215;-76